createdAt,value
2022-11-20T00:02:23.119Z,28.37
2022-11-20T00:04:54.586Z,27.40
2022-11-20T00:07:25.377Z,22.63
2022-11-20T00:09:53.828Z,24.73
2022-11-20T00:12:21.993Z,26.40
2022-11-20T00:14:50.139Z,26.00
2022-11-20T00:17:18.267Z,25.50
2022-11-20T00:19:46.475Z,24.37
2022-11-20T00:22:14.863Z,25.37
2022-11-20T00:24:46.332Z,28.97
2022-11-20T00:27:14.577Z,30.37
2022-11-20T00:29:42.801Z,30.63
2022-11-20T00:32:10.920Z,29.03
2022-11-20T00:34:39.082Z,25.87
2022-11-20T00:37:07.344Z,26.53
2022-11-20T00:39:35.543Z,29.83
2022-11-20T00:42:05.245Z,30.67
2022-11-20T00:44:33.673Z,30.70
2022-11-20T00:47:01.815Z,29.37
2022-11-20T00:49:29.899Z,28.90
2022-11-20T00:51:58.135Z,28.40
2022-11-20T00:54:26.470Z,27.43
2022-11-20T00:56:55.215Z,29.97
2022-11-20T00:59:24.917Z,27.33
2022-11-20T01:01:53.109Z,28.63
2022-11-20T01:04:21.337Z,29.60
2022-11-20T01:06:49.467Z,27.97
2022-11-20T01:09:17.737Z,28.07
2022-11-20T01:11:46.774Z,26.60
2022-11-20T01:14:16.928Z,29.87
2022-11-20T01:16:49.282Z,29.37
2022-11-20T01:19:20.103Z,29.90
2022-11-20T01:21:51.772Z,30.67
2022-11-20T01:24:21.399Z,28.50
2022-11-20T01:26:50.869Z,28.97
2022-11-20T01:29:21.333Z,28.40
2022-11-20T01:31:51.631Z,29.20
2022-11-20T01:34:22.029Z,28.47
2022-11-20T01:36:51.699Z,29.43
2022-11-20T01:39:21.768Z,27.40
2022-11-20T01:42:10.473Z,28.27
2022-11-20T01:44:52.170Z,30.63
2022-11-20T01:47:26.002Z,26.60
2022-11-20T01:49:57.865Z,25.07
2022-11-20T01:52:30.128Z,27.37
2022-11-20T01:55:01.826Z,28.53
2022-11-20T01:57:32.206Z,26.37
2022-11-20T02:00:07.102Z,28.63
2022-11-20T02:02:43.792Z,28.90
2022-11-20T02:05:18.984Z,31.63
2022-11-20T02:07:48.229Z,29.17
2022-11-20T02:10:17.163Z,26.73
2022-11-20T02:13:03.195Z,27.90
2022-11-20T02:15:34.714Z,27.37
2022-11-20T02:18:05.077Z,29.17
2022-11-20T02:20:33.610Z,29.50
2022-11-20T02:23:05.526Z,25.03
2022-11-20T02:25:39.909Z,25.73
2022-11-20T02:28:08.293Z,28.37
2022-11-20T02:30:36.517Z,28.03
2022-11-20T02:33:04.964Z,29.23
2022-11-20T02:35:45.920Z,26.30
2022-11-20T02:38:14.221Z,24.67
2022-11-20T02:40:44.211Z,28.93
2022-11-20T02:43:12.934Z,26.20
2022-11-20T02:45:41.326Z,27.47
2022-11-20T02:48:09.910Z,28.50
2022-11-20T02:50:40.956Z,28.23
2022-11-20T02:53:09.284Z,28.93
2022-11-20T02:55:37.846Z,24.03
2022-11-20T02:58:07.469Z,27.20
2022-11-20T03:00:36.574Z,26.00
2022-11-20T03:03:04.883Z,29.13
2022-11-20T03:05:33.012Z,26.67
2022-11-20T03:08:01.416Z,25.37
2022-11-20T03:10:29.740Z,25.77
2022-11-20T03:12:58.155Z,25.17
2022-11-20T03:15:27.786Z,26.97
2022-11-20T03:17:56.987Z,28.33
2022-11-20T03:20:25.274Z,28.87
2022-11-20T03:22:53.475Z,30.77
2022-11-20T03:25:21.763Z,33.40
2022-11-20T03:27:50.121Z,31.23
2022-11-20T03:30:18.447Z,30.67
2022-11-20T03:32:48.123Z,31.50
2022-11-20T03:35:16.758Z,31.97
2022-11-20T03:37:46.687Z,27.40
2022-11-20T03:40:15.208Z,32.03
2022-11-20T03:42:49.063Z,31.23
2022-11-20T03:45:18.933Z,30.23
2022-11-20T03:47:48.627Z,28.20
2022-11-20T03:50:17.111Z,32.63
2022-11-20T03:52:45.266Z,33.00
2022-11-20T03:55:13.557Z,32.50
2022-11-20T03:57:41.822Z,33.00
2022-11-20T04:00:11.120Z,30.07
2022-11-20T04:02:39.390Z,29.13
2022-11-20T04:05:09.696Z,30.57
2022-11-20T04:07:38.018Z,30.90
2022-11-20T04:10:07.219Z,28.73
2022-11-20T04:12:35.690Z,32.63
2022-11-20T04:15:04.155Z,30.20
2022-11-20T04:17:32.875Z,34.23
2022-11-20T04:20:01.525Z,31.07
2022-11-20T04:22:31.431Z,32.60
2022-11-20T04:24:59.806Z,30.03
2022-11-20T04:27:28.077Z,31.50
2022-11-20T04:29:56.215Z,33.60
2022-11-20T04:32:24.543Z,29.97
2022-11-20T04:34:52.773Z,33.53
2022-11-20T04:37:20.956Z,34.30
2022-11-20T04:39:50.627Z,30.47
2022-11-20T04:42:30.473Z,31.87
2022-11-20T04:44:59.288Z,33.77
2022-11-20T04:47:27.463Z,30.03
2022-11-20T04:49:55.821Z,31.80
2022-11-20T04:52:24.090Z,31.07
2022-11-20T04:54:55.144Z,29.47
2022-11-20T04:57:23.327Z,33.30
2022-11-20T04:59:51.814Z,33.83
2022-11-20T05:02:20.545Z,31.83
2022-11-20T05:04:48.826Z,34.13
2022-11-20T05:07:17.327Z,35.87
2022-11-20T05:09:45.623Z,34.40
2022-11-20T05:12:15.425Z,34.60
2022-11-20T05:14:43.676Z,34.37
2022-11-20T05:17:13.131Z,36.00
2022-11-20T05:19:42.008Z,37.53
2022-11-20T05:22:10.320Z,36.17
2022-11-20T05:24:38.661Z,33.70
2022-11-20T05:27:06.959Z,35.67
2022-11-20T05:29:36.750Z,37.80
2022-11-20T05:32:06.831Z,32.57
2022-11-20T05:34:35.553Z,34.30
2022-11-20T05:37:03.784Z,35.03
2022-11-20T05:39:32.115Z,34.67
2022-11-20T05:42:14.211Z,34.50
2022-11-20T05:44:44.120Z,34.80
2022-11-20T05:47:12.432Z,38.03
2022-11-20T05:49:41.002Z,33.47
2022-11-20T05:52:09.373Z,34.30
2022-11-20T05:54:37.493Z,35.43
2022-11-20T05:57:05.831Z,36.40
2022-11-20T05:59:34.102Z,39.00
2022-11-20T06:02:05.832Z,37.60
2022-11-20T06:04:34.179Z,39.10
2022-11-20T06:07:02.405Z,40.23
2022-11-20T06:09:30.530Z,39.47
2022-11-20T06:11:58.666Z,40.87
2022-11-20T06:14:27.196Z,39.10
2022-11-20T06:16:55.333Z,35.83
2022-11-20T06:19:24.801Z,37.37
2022-11-20T06:21:53.186Z,35.50
2022-11-20T06:24:21.301Z,37.47
2022-11-20T06:26:49.426Z,36.00
2022-11-20T06:29:17.577Z,38.57
2022-11-20T06:31:45.711Z,40.13
2022-11-20T06:34:13.797Z,34.47
2022-11-20T06:36:43.290Z,35.53
2022-11-20T06:39:11.943Z,35.93
2022-11-20T06:41:39.995Z,35.67
2022-11-20T06:44:08.784Z,37.50
2022-11-20T06:46:36.810Z,33.00
2022-11-20T06:49:04.914Z,33.27
2022-11-20T06:51:32.992Z,33.37
2022-11-20T06:54:02.696Z,34.90
2022-11-20T06:56:30.753Z,35.47
2022-11-20T06:58:58.864Z,29.40
2022-11-20T07:01:27.095Z,35.07
2022-11-20T07:03:55.186Z,31.77
2022-11-20T07:06:23.287Z,33.17
2022-11-20T07:08:52.777Z,29.57
2022-11-20T07:11:22.305Z,27.90
2022-11-20T07:13:50.897Z,29.40
2022-11-20T07:16:19.220Z,26.43
2022-11-20T07:18:50.561Z,26.13
2022-11-20T07:21:19.397Z,27.47
2022-11-20T07:23:47.976Z,27.17
2022-11-20T07:26:16.236Z,29.67
2022-11-20T07:28:47.935Z,26.47
2022-11-20T07:31:19.318Z,27.27
2022-11-20T07:33:48.026Z,27.77
2022-11-20T07:36:16.076Z,25.37
2022-11-20T07:38:44.129Z,27.10
2022-11-20T07:41:12.181Z,24.13
2022-11-20T07:43:41.617Z,24.20
2022-11-20T07:46:11.236Z,24.33
2022-11-20T07:48:39.375Z,26.53
2022-11-20T07:51:07.451Z,24.57
2022-11-20T07:53:35.594Z,25.07
2022-11-20T07:56:04.384Z,25.73
2022-11-20T07:58:33.990Z,25.97
2022-11-20T08:01:06.105Z,26.93
2022-11-20T08:03:35.724Z,25.27
2022-11-20T08:06:04.154Z,23.80
2022-11-20T08:08:33.991Z,26.17
2022-11-20T08:11:16.992Z,24.77
2022-11-20T08:14:02.970Z,26.83
2022-11-20T08:16:31.170Z,30.13
2022-11-20T08:19:00.580Z,25.80
2022-11-20T08:21:29.597Z,28.57
2022-11-20T08:24:00.228Z,27.73
2022-11-20T08:26:28.380Z,27.00
2022-11-20T08:28:56.892Z,26.13
2022-11-20T08:31:25.706Z,28.50
2022-11-20T08:33:54.209Z,28.17
2022-11-20T08:36:24.499Z,27.10
2022-11-20T08:38:54.404Z,25.93
2022-11-20T08:41:26.677Z,26.20
2022-11-20T08:43:56.836Z,25.27
2022-11-20T08:46:26.199Z,29.17
2022-11-20T08:48:54.526Z,27.60
2022-11-20T08:51:23.990Z,28.30
2022-11-20T08:53:54.236Z,30.80
2022-11-20T08:56:22.480Z,30.63
2022-11-20T09:01:40.626Z,27.17
2022-11-20T09:04:10.069Z,27.73
2022-11-20T09:06:40.183Z,30.23
2022-11-20T09:09:08.312Z,30.50
2022-11-20T09:11:37.127Z,24.37
2022-11-20T09:14:05.579Z,26.53
2022-11-20T09:16:33.774Z,28.07
2022-11-20T09:19:33.605Z,29.13
2022-11-20T09:21:54.616Z,32.30
2022-11-20T09:24:26.562Z,32.67
2022-11-20T09:26:54.673Z,34.07
2022-11-20T09:29:23.376Z,30.03
2022-11-20T09:31:51.618Z,28.30
2022-11-20T09:34:19.690Z,29.93
2022-11-20T09:36:47.960Z,26.80
2022-11-20T09:39:17.465Z,28.73
2022-11-20T09:42:10.473Z,26.17
2022-11-20T09:44:57.010Z,27.00
2022-11-20T09:47:32.219Z,27.90
2022-11-20T09:50:09.041Z,25.23
2022-11-20T09:52:44.485Z,33.87
2022-11-20T09:55:15.719Z,25.37
2022-11-20T09:57:46.633Z,22.60
2022-11-20T10:00:16.906Z,25.33
2022-11-20T10:02:48.033Z,26.57
2022-11-20T10:05:20.473Z,24.57
2022-11-20T10:07:56.244Z,22.93
2022-11-20T10:10:31.705Z,21.07
2022-11-20T10:13:19.502Z,23.73
2022-11-20T10:15:55.632Z,23.50
2022-11-20T10:18:32.982Z,21.20
2022-11-20T10:21:06.360Z,22.67
2022-11-20T10:23:48.127Z,22.10
2022-11-20T10:26:24.452Z,21.53
2022-11-20T10:29:08.524Z,21.50
2022-11-20T10:31:38.915Z,40.40
2022-11-20T10:34:13.151Z,20.77
2022-11-20T10:36:46.062Z,20.37
2022-11-20T10:39:20.402Z,21.27
2022-11-20T10:46:42.630Z,20.10
2022-11-20T10:49:29.786Z,21.33
2022-11-20T10:52:03.565Z,18.57
2022-11-20T10:54:38.394Z,22.83
2022-11-20T10:57:12.992Z,24.90
2022-11-20T10:59:47.627Z,20.90
2022-11-20T11:02:21.678Z,21.73
2022-11-20T11:04:51.594Z,19.27
2022-11-20T11:07:23.626Z,21.47
2022-11-20T11:09:53.378Z,22.70
2022-11-20T11:12:22.277Z,21.07
2022-11-20T11:14:51.959Z,20.07
2022-11-20T11:17:30.311Z,17.90
2022-11-20T11:20:17.608Z,19.37
2022-11-20T11:22:48.657Z,19.37
2022-11-20T11:25:29.112Z,21.30
2022-11-20T11:27:59.377Z,19.73
2022-11-20T11:30:29.265Z,18.73
2022-11-20T11:33:11.894Z,19.40
2022-11-20T11:35:49.969Z,20.23
2022-11-20T11:38:23.427Z,23.33
2022-11-20T11:40:51.566Z,19.23
2022-11-20T11:43:39.704Z,20.33
2022-11-20T11:46:30.335Z,23.13
2022-11-20T11:49:01.505Z,21.93
2022-11-20T11:51:37.599Z,21.80
2022-11-20T11:54:13.580Z,25.07
2022-11-20T11:56:42.036Z,22.47
2022-11-20T11:59:14.426Z,25.80
2022-11-20T12:01:46.538Z,27.97
2022-11-20T12:04:22.864Z,24.87
2022-11-20T12:07:18.223Z,25.20
2022-11-20T12:09:55.074Z,27.77
2022-11-20T12:12:25.538Z,23.77
2022-11-20T12:14:55.603Z,26.60
2022-11-20T12:17:23.972Z,24.33
2022-11-20T12:19:53.774Z,24.90
2022-11-20T12:22:29.928Z,22.70
2022-11-20T12:25:01.593Z,21.17
2022-11-20T12:27:46.525Z,23.13
2022-11-20T12:30:16.793Z,21.70
2022-11-20T12:33:21.965Z,22.33
2022-11-20T12:36:05.318Z,22.80
2022-11-20T12:38:52.769Z,24.07
2022-11-20T12:41:49.729Z,22.50
2022-11-20T12:44:43.794Z,24.20
2022-11-20T12:47:17.635Z,25.37
2022-11-20T12:49:50.840Z,22.43
2022-11-20T12:52:30.861Z,22.93
2022-11-20T12:55:24.907Z,21.60
2022-11-20T12:57:56.743Z,20.37
2022-11-20T13:00:25.779Z,21.80
2022-11-20T13:03:36.311Z,22.87
2022-11-20T13:06:12.715Z,23.10
2022-11-20T13:08:43.334Z,24.20
2022-11-20T13:11:16.951Z,22.50
2022-11-20T13:14:02.270Z,21.67
2022-11-20T13:16:38.399Z,22.20
2022-11-20T13:19:13.564Z,23.27
2022-11-20T13:21:43.626Z,21.47
2022-11-20T13:24:27.508Z,21.33
2022-11-20T13:27:07.287Z,21.93
2022-11-20T13:29:36.463Z,21.33
2022-11-20T13:32:08.112Z,23.20
2022-11-20T13:34:38.733Z,22.43
2022-11-20T13:37:06.947Z,20.40
2022-11-20T13:39:37.893Z,21.63
2022-11-20T13:42:23.877Z,20.97
2022-11-20T13:44:55.513Z,18.93
2022-11-20T13:47:25.827Z,18.27
2022-11-20T13:49:55.523Z,19.63
2022-11-20T13:52:41.471Z,18.37
2022-11-20T13:55:24.029Z,19.17
2022-11-20T13:58:25.218Z,16.73
2022-11-20T14:00:58.911Z,17.17
2022-11-20T14:04:04.077Z,19.10
2022-11-20T14:06:28.224Z,20.53
2022-11-20T14:08:56.704Z,17.27
2022-11-20T14:11:27.665Z,16.30
2022-11-20T14:14:01.381Z,17.73
2022-11-20T14:16:31.263Z,19.07
2022-11-20T14:19:13.810Z,17.57
2022-11-20T14:21:41.928Z,16.47
2022-11-20T14:24:13.428Z,19.03
2022-11-20T14:26:46.054Z,19.30
2022-11-20T14:29:14.536Z,16.60
2022-11-20T14:31:43.162Z,17.77
2022-11-20T14:34:15.505Z,18.03
2022-11-20T14:36:45.905Z,17.13
2022-11-20T14:39:14.676Z,17.47
2022-11-20T14:41:52.957Z,15.63
2022-11-20T14:44:28.481Z,15.37
2022-11-20T14:46:57.787Z,15.27
2022-11-20T14:49:26.885Z,16.33
2022-11-20T14:52:02.153Z,12.90
2022-11-20T14:54:31.668Z,15.67
2022-11-20T14:57:03.348Z,16.17
2022-11-20T14:59:33.658Z,14.97
2022-11-20T15:02:04.972Z,13.57
2022-11-20T15:04:33.451Z,12.30
2022-11-20T15:07:03.312Z,14.83
2022-11-20T15:09:31.927Z,11.00
2022-11-20T15:12:02.694Z,11.23
2022-11-20T15:14:33.500Z,12.23
2022-11-20T15:17:01.741Z,14.77
2022-11-20T15:19:29.845Z,11.83
2022-11-20T15:21:58.085Z,13.40
2022-11-20T15:24:26.700Z,11.70
2022-11-20T15:26:54.959Z,11.87
2022-11-20T15:29:25.657Z,13.80
2022-11-20T15:31:55.175Z,8.47
2022-11-20T15:34:23.831Z,6.60
2022-11-20T15:36:52.115Z,8.27
2022-11-20T15:39:20.477Z,9.73
2022-11-20T15:41:49.258Z,7.47
2022-11-20T15:44:18.934Z,4.87
2022-11-20T15:46:51.310Z,4.47
2022-11-20T15:49:22.724Z,3.73
2022-11-20T15:52:01.385Z,3.87
2022-11-20T15:54:29.987Z,3.97
2022-11-20T15:56:58.419Z,3.40
2022-11-20T15:59:28.153Z,5.27
2022-11-20T16:02:00.509Z,4.70
2022-11-20T16:04:29.095Z,5.33
2022-11-20T16:06:57.683Z,4.10
2022-11-20T16:09:33.765Z,5.00
2022-11-20T16:12:04.307Z,4.90
2022-11-20T16:14:51.271Z,4.50
2022-11-20T16:17:43.179Z,4.20
2022-11-20T16:20:17.524Z,6.20
2022-11-20T16:22:48.978Z,4.97
2022-11-20T16:25:19.050Z,10.33
2022-11-20T16:27:50.506Z,4.83
2022-11-20T16:30:22.121Z,7.97
2022-11-20T16:32:53.359Z,9.27
2022-11-20T16:35:21.976Z,7.23
2022-11-20T16:37:51.130Z,9.87
2022-11-20T16:40:20.047Z,8.27
2022-11-20T16:42:49.545Z,6.33
2022-11-20T16:45:24.798Z,7.83
2022-11-20T16:47:56.137Z,8.02
2022-11-20T16:50:25.948Z,6.57
2022-11-20T16:52:54.713Z,8.30
2022-11-20T16:55:23.639Z,7.10
2022-11-20T16:57:51.957Z,5.27
2022-11-20T17:00:20.758Z,7.43
2022-11-20T17:02:49.806Z,5.73
2022-11-20T17:05:20.465Z,8.40
2022-11-20T17:07:49.615Z,6.30
2022-11-20T17:10:18.263Z,7.57
2022-11-20T17:12:46.475Z,8.47
2022-11-20T17:15:15.027Z,12.30
2022-11-20T17:17:44.646Z,7.73
2022-11-20T17:20:13.402Z,9.00
2022-11-20T17:22:43.212Z,11.00
2022-11-20T17:25:11.613Z,6.57
2022-11-20T17:27:39.792Z,5.97
2022-11-20T17:30:09.115Z,7.10
2022-11-20T17:32:37.501Z,5.80
2022-11-20T17:35:06.458Z,6.50
2022-11-20T17:37:34.860Z,6.20
2022-11-20T17:40:04.822Z,9.53
2022-11-20T17:42:36.823Z,6.30
2022-11-20T17:45:06.370Z,5.83
2022-11-20T17:47:37.217Z,4.80
2022-11-20T17:50:06.105Z,3.53
2022-11-20T17:52:34.472Z,4.03
2022-11-20T17:55:04.700Z,3.07
2022-11-20T17:57:50.950Z,3.70
2022-11-20T18:00:23.126Z,7.10
2022-11-20T18:02:51.734Z,2.80
2022-11-20T18:05:19.992Z,2.47
2022-11-20T18:07:48.572Z,2.57
2022-11-20T18:10:18.857Z,2.97
2022-11-20T18:12:47.171Z,3.27
2022-11-20T18:15:16.832Z,2.67
2022-11-20T18:17:46.507Z,2.03
2022-11-20T18:20:28.998Z,2.03
2022-11-20T18:23:00.179Z,2.17
2022-11-20T18:25:29.842Z,4.20
2022-11-20T18:27:58.261Z,2.57
2022-11-20T18:30:26.603Z,3.27
2022-11-20T18:32:55.923Z,5.97
2022-11-20T18:35:24.387Z,4.93
2022-11-20T18:37:52.589Z,6.33
2022-11-20T18:40:20.944Z,4.97
2022-11-20T18:43:08.869Z,3.97
2022-11-20T18:45:41.294Z,4.10
2022-11-20T18:48:10.099Z,7.17
2022-11-20T18:50:38.610Z,5.27
2022-11-20T18:53:07.004Z,3.10
2022-11-20T18:55:35.393Z,4.93
2022-11-20T18:58:06.318Z,6.27
2022-11-20T19:00:35.603Z,2.80
2022-11-20T19:03:05.851Z,5.17
2022-11-20T19:05:38.589Z,4.20
2022-11-20T19:08:08.277Z,4.77
2022-11-20T19:10:44.845Z,7.97
2022-11-20T19:13:16.814Z,9.93
2022-11-20T19:15:46.203Z,4.73
2022-11-20T19:18:15.004Z,9.43
2022-11-20T19:20:44.020Z,7.50
2022-11-20T19:23:14.062Z,6.80
2022-11-20T19:25:45.459Z,8.37
2022-11-20T19:28:16.014Z,11.83
2022-11-20T19:30:45.011Z,7.27
2022-11-20T19:33:15.333Z,11.83
2022-11-20T19:35:44.664Z,9.30
2022-11-20T19:38:13.712Z,12.00
2022-11-20T19:40:45.208Z,11.97
2022-11-20T19:43:15.396Z,11.40
2022-11-20T19:45:43.770Z,7.93
2022-11-20T19:48:12.043Z,11.50
2022-11-20T19:50:41.046Z,12.17
2022-11-20T19:53:11.504Z,16.13
2022-11-20T19:55:40.426Z,13.40
2022-11-20T19:58:09.642Z,17.70
2022-11-20T20:00:40.100Z,8.30
2022-11-20T20:03:10.095Z,15.13
2022-11-20T20:05:39.118Z,11.37
2022-11-20T20:08:08.692Z,12.13
2022-11-20T20:10:39.209Z,14.70
2022-11-20T20:13:13.806Z,9.93
2022-11-20T20:15:46.077Z,14.37
2022-11-20T20:18:15.455Z,11.17
2022-11-20T20:20:44.036Z,7.77
2022-11-20T20:23:14.451Z,18.00
2022-11-20T20:25:45.591Z,13.27
2022-11-20T20:28:14.164Z,14.03
2022-11-20T20:30:45.170Z,6.73
2022-11-20T20:33:14.606Z,10.17
2022-11-20T20:35:53.195Z,13.73
2022-11-20T20:38:25.360Z,11.60
2022-11-20T20:40:54.392Z,10.67
2022-11-20T20:43:23.019Z,15.87
2022-11-20T20:45:55.743Z,10.67
2022-11-20T20:48:28.052Z,12.20
2022-11-20T20:50:56.629Z,14.53
2022-11-20T20:53:27.721Z,13.27
2022-11-20T20:55:57.056Z,17.10
2022-11-20T20:58:26.124Z,12.27
2022-11-20T21:00:55.975Z,11.53
2022-11-20T21:03:30.662Z,12.17
2022-11-20T21:06:01.693Z,12.80
2022-11-20T21:08:32.891Z,14.37
2022-11-20T21:11:04.903Z,9.07
2022-11-20T21:13:33.996Z,13.37
2022-11-20T21:16:04.555Z,7.53
2022-11-20T21:18:33.262Z,11.00
2022-11-20T21:21:19.779Z,15.57
2022-11-20T21:23:49.140Z,11.10
2022-11-20T21:26:18.536Z,9.33
2022-11-20T21:28:47.114Z,13.87
2022-11-20T21:31:22.348Z,10.30
2022-11-20T21:33:56.192Z,14.27
2022-11-20T21:36:25.931Z,8.07
2022-11-20T21:38:56.468Z,9.47
2022-11-20T21:41:26.517Z,11.23
2022-11-20T21:44:29.755Z,8.30
2022-11-20T21:46:50.166Z,9.97
2022-11-20T21:49:18.489Z,10.00
2022-11-20T21:51:47.594Z,9.30
2022-11-20T21:54:18.867Z,12.47
2022-11-20T21:56:47.103Z,9.60
2022-11-20T21:59:15.421Z,11.13
2022-11-20T22:01:43.973Z,8.30
2022-11-20T22:04:15.871Z,10.50
2022-11-20T22:06:44.437Z,9.77
2022-11-20T22:09:13.478Z,7.40
2022-11-20T22:11:44.231Z,5.83
2022-11-20T22:14:20.610Z,13.37
2022-11-20T22:16:51.190Z,7.97
2022-11-20T22:19:21.751Z,13.63
2022-11-20T22:21:53.768Z,9.53
2022-11-20T22:24:23.506Z,13.43
2022-11-20T22:26:55.431Z,10.97
2022-11-20T22:29:24.445Z,10.90
2022-11-20T22:31:53.639Z,9.53
2022-11-20T22:34:23.889Z,12.93
2022-11-20T22:36:53.946Z,7.37
2022-11-20T22:39:23.133Z,12.13
2022-11-20T22:41:51.486Z,11.27
2022-11-20T22:44:19.658Z,9.10
2022-11-20T22:46:47.868Z,12.57
2022-11-20T22:49:16.037Z,13.73
2022-11-20T22:51:45.758Z,11.77
2022-11-20T22:54:17.584Z,17.50
2022-11-20T22:56:50.606Z,9.93
2022-11-20T22:59:21.294Z,12.20
2022-11-20T23:01:49.456Z,10.43
2022-11-20T23:04:17.805Z,15.23
2022-11-20T23:06:47.662Z,13.17
2022-11-20T23:09:17.522Z,12.57
2022-11-20T23:11:45.818Z,12.30
2022-11-20T23:14:15.860Z,10.10
2022-11-20T23:16:44.065Z,15.53
2022-11-20T23:19:15.267Z,12.73
2022-11-20T23:21:44.500Z,10.97
2022-11-20T23:24:14.170Z,10.53
2022-11-20T23:26:43.288Z,12.03
2022-11-20T23:29:12.055Z,13.07
2022-11-20T23:31:40.472Z,11.00
2022-11-20T23:34:10.914Z,14.63
2022-11-20T23:36:39.108Z,10.40
2022-11-20T23:39:08.711Z,17.60
2022-11-20T23:41:38.508Z,14.17
2022-11-20T23:44:07.174Z,9.30
2022-11-20T23:46:35.402Z,13.47
2022-11-20T23:49:03.724Z,12.53
2022-11-20T23:51:31.860Z,14.00
2022-11-20T23:54:04.528Z,15.10
2022-11-20T23:56:33.286Z,12.37
2022-11-20T23:59:03.042Z,10.00
